Wrightsville Beach, NC

8:23 PM EDT on August 04, 2015 (GMT -0400)
NOS_NWLON | | Change Station
CLOSE
Current Station
Personal Weather Station
Location: Wrightsville Beach, NC
Elevation: 0 ft
Nearby Weather Stations

Elev 0 ft 34.21 °N, 77.79 °W | Updated 35 minutes ago

Partly Cloudy
Partly Cloudy
82 °F
Feels Like 80 °F
N
15
Wind Variable Wind from SW
Gusts 19.0 mph

Today
High -- | Low -- °F
--% Chance of Precip.
Yesterday
High -- | Low -- °F
Precip. -- in
6:24 AM 8:09 PM
Waning Gibbous, 73% visible
Pressure 29.93 in
Visibility 10.0 miles
Clouds Scattered Clouds 1300 ft
Mostly Cloudy 4000 ft
Heat Index 80 °F
Dew Point Not available.
Humidity Not available.
Rainfall in
Snow Depth Not available.
UV 0 out of 12
Pollen 1.30 out of 12
Air Quality Not available.
Flu Activity Not available.
SPECI KILM 050020Z AUTO 26006KT 10SM SCT013 BKN040 27/25 A2993 RMK AO2 P0001 T02720250

More Conditions Fewer Conditions

Pressure 29.93 in
Visibility 10.0 miles
Clouds Scattered Clouds 1300 ft
Mostly Cloudy 4000 ft
Heat Index 80 °F
Dew Point Not available.
Humidity Not available.
Rainfall in
Snow Depth Not available.
UV 0 out of 12
Pollen 1.30 out of 12
Air Quality Not available.
Flu Activity Not available.
SPECI KILM 050020Z AUTO 26006KT 10SM SCT013 BKN040 27/25 A2993 RMK AO2 P0001 T02720250

More Conditions Fewer Conditions

10-Day Weather Forecast

×

Almanac

Astronomy

Aug. 04, 2015 Rise Set
Actual Time
Civil Twilight
Nautical Twilight
Astronomical Twilight
Moon
Length of Visible Light
Length of Day
Tomorrow will be .
, % of the Moon is Illuminated

Today's Extremes

State Highs State Lows

Community

WunderPhotos

Upload Photos

1,844,033 photos uploaded!

WunderBlogs® & News

Nearby

Air Quality

  Air Quality AQ Index Pollutant
Not available.

Snow Depth

Station Depth Elevation

Earthquake Activity

City Distance Mag. Time & Date
Minimum magnitude displayed is 2.5.

Coastal Water Temperatures

Place Temperature

Stations

Nearby Weather Stations

Station Location Temp. Windchill Dew Point Humidity Wind Precip. Elev Updated Type